sensor_id;sensor_type;location;lat;lon;timestamp;pressure;altitude;pressure_sealevel;temperature;humidity
39301;BME280;25019;42.626;23.380;2023-12-22T00:01:26;92987.38;;;-0.61;100.00
39301;BME280;25019;42.626;23.380;2023-12-22T00:03:52;92958.09;;;-0.81;100.00
39301;BME280;25019;42.626;23.380;2023-12-22T00:06:18;92809.78;;;-1.84;100.00
39301;BME280;25019;42.626;23.380;2023-12-22T00:08:43;92812.66;;;-1.67;100.00
39301;BME280;25019;42.626;23.380;2023-12-22T00:11:09;92899.13;;;-1.08;100.00
39301;BME280;25019;42.626;23.380;2023-12-22T00:13:35;92919.09;;;-0.95;100.00
39301;BME280;25019;42.626;23.380;2023-12-22T00:16:01;92984.88;;;-0.49;100.00
39301;BME280;25019;42.626;23.380;2023-12-22T00:18:27;92887.59;;;-0.93;100.00
39301;BME280;25019;42.626;23.380;2023-12-22T00:20:53;92720.00;;;-2.00;100.00
39301;BME280;25019;42.626;23.380;2023-12-22T00:23:18;92821.00;;;-1.33;100.00
39301;BME280;25019;42.626;23.380;2023-12-22T00:25:44;92859.38;;;-0.96;100.00
39301;BME280;25019;42.626;23.380;2023-12-22T00:28:10;92903.84;;;-0.72;100.00
39301;BME280;25019;42.626;23.380;2023-12-22T00:30:35;92963.41;;;-0.25;100.00
39301;BME280;25019;42.626;23.380;2023-12-22T00:33:01;92932.44;;;-0.40;100.00
39301;BME280;25019;42.626;23.380;2023-12-22T00:35:27;92847.84;;;-0.88;100.00
39301;BME280;25019;42.626;23.380;2023-12-22T00:37:53;92947.81;;;-0.32;100.00
39301;BME280;25019;42.626;23.380;2023-12-22T00:40:19;92810.78;;;-1.09;100.00
39301;BME280;25019;42.626;23.380;2023-12-22T00:42:44;92925.03;;;-0.43;100.00
39301;BME280;25019;42.626;23.380;2023-12-22T00:45:10;92858.16;;;-0.75;100.00
39301;BME280;25019;42.626;23.380;2023-12-22T00:47:36;92753.63;;;-1.48;100.00
39301;BME280;25019;42.626;23.380;2023-12-22T00:50:03;92856.22;;;-0.61;100.00
39301;BME280;25019;42.626;23.380;2023-12-22T00:52:30;92831.22;;;-0.87;100.00
39301;BME280;25019;42.626;23.380;2023-12-22T00:54:56;92895.91;;;-0.22;100.00
39301;BME280;25019;42.626;23.380;2023-12-22T00:57:23;92775.31;;;-1.10;100.00
39301;BME280;25019;42.626;23.380;2023-12-22T00:59:48;92787.41;;;-0.97;100.00
39301;BME280;25019;42.626;23.380;2023-12-22T01:02:15;92794.06;;;-0.83;100.00
39301;BME280;25019;42.626;23.380;2023-12-22T01:04:41;92800.88;;;-0.63;100.00
39301;BME280;25019;42.626;23.380;2023-12-22T01:07:07;92870.16;;;0.01;100.00
39301;BME280;25019;42.626;23.380;2023-12-22T01:09:34;92818.19;;;-0.50;100.00
39301;BME280;25019;42.626;23.380;2023-12-22T01:12:00;92876.84;;;-0.22;100.00
39301;BME280;25019;42.626;23.380;2023-12-22T01:14:28;92873.97;;;-0.14;100.00
39301;BME280;25019;42.626;23.380;2023-12-22T01:16:54;92859.72;;;0.01;100.00
39301;BME280;25019;42.626;23.380;2023-12-22T01:19:20;92923.75;;;0.34;100.00
39301;BME280;25019;42.626;23.380;2023-12-22T01:21:46;92925.13;;;0.36;100.00
39301;BME280;25019;42.626;23.380;2023-12-22T01:24:11;92737.72;;;-0.65;100.00
39301;BME280;25019;42.626;23.380;2023-12-22T01:26:37;92801.19;;;-0.22;100.00
39301;BME280;25019;42.626;23.380;2023-12-22T01:29:03;92741.53;;;-0.49;100.00
39301;BME280;25019;42.626;23.380;2023-12-22T01:31:29;92803.53;;;-0.02;100.00
39301;BME280;25019;42.626;23.380;2023-12-22T01:33:54;92905.72;;;0.74;100.00
39301;BME280;25019;42.626;23.380;2023-12-22T01:36:20;92887.06;;;0.71;100.00
39301;BME280;25019;42.626;23.380;2023-12-22T01:38:46;92875.84;;;0.82;100.00
39301;BME280;25019;42.626;23.380;2023-12-22T01:41:11;92842.25;;;0.43;100.00
39301;BME280;25019;42.626;23.380;2023-12-22T01:43:37;92621.00;;;-0.82;100.00
39301;BME280;25019;42.626;23.380;2023-12-22T01:46:03;92771.81;;;0.25;100.00
39301;BME280;25019;42.626;23.380;2023-12-22T01:48:30;92830.13;;;0.73;100.00
39301;BME280;25019;42.626;23.380;2023-12-22T01:50:58;92777.53;;;0.46;100.00
39301;BME280;25019;42.626;23.380;2023-12-22T01:53:26;92849.13;;;0.92;100.00
39301;BME280;25019;42.626;23.380;2023-12-22T01:55:54;92865.41;;;1.06;100.00
39301;BME280;25019;42.626;23.380;2023-12-22T01:58:22;92853.00;;;1.13;100.00
39301;BME280;25019;42.626;23.380;2023-12-22T02:00:48;92814.56;;;0.78;100.00
39301;BME280;25019;42.626;23.380;2023-12-22T02:03:15;92844.94;;;0.91;100.00
39301;BME280;25019;42.626;23.380;2023-12-22T02:05:43;92724.25;;;0.23;100.00
39301;BME280;25019;42.626;23.380;2023-12-22T02:08:10;92710.69;;;0.02;100.00
39301;BME280;25019;42.626;23.380;2023-12-22T02:10:36;92871.44;;;1.07;100.00
39301;BME280;25019;42.626;23.380;2023-12-22T02:13:03;92778.44;;;0.51;100.00
39301;BME280;25019;42.626;23.380;2023-12-22T02:15:30;92831.84;;;0.67;100.00
39301;BME280;25019;42.626;23.380;2023-12-22T02:18:03;92850.53;;;0.95;100.00
39301;BME280;25019;42.626;23.380;2023-12-22T02:20:31;92800.94;;;0.64;100.00
39301;BME280;25019;42.626;23.380;2023-12-22T02:22:57;92842.09;;;0.93;100.00
39301;BME280;25019;42.626;23.380;2023-12-22T02:25:22;92845.28;;;1.18;100.00
39301;BME280;25019;42.626;23.380;2023-12-22T02:27:50;92851.53;;;1.17;100.00
39301;BME280;25019;42.626;23.380;2023-12-22T02:30:25;92726.44;;;0.50;100.00
39301;BME280;25019;42.626;23.380;2023-12-22T02:32:55;92804.81;;;0.97;100.00
39301;BME280;25019;42.626;23.380;2023-12-22T02:35:25;92796.97;;;0.97;100.00
39301;BME280;25019;42.626;23.380;2023-12-22T02:37:52;92860.72;;;1.32;100.00
39301;BME280;25019;42.626;23.380;2023-12-22T02:40:20;92825.97;;;1.19;100.00
39301;BME280;25019;42.626;23.380;2023-12-22T02:42:46;92805.84;;;0.96;100.00
39301;BME280;25019;42.626;23.380;2023-12-22T02:45:17;92790.28;;;1.01;100.00
39301;BME280;25019;42.626;23.380;2023-12-22T02:47:43;92837.41;;;1.42;100.00
39301;BME280;25019;42.626;23.380;2023-12-22T02:50:10;92793.56;;;1.09;100.00
39301;BME280;25019;42.626;23.380;2023-12-22T02:52:37;92796.16;;;1.21;100.00
39301;BME280;25019;42.626;23.380;2023-12-22T02:55:04;92829.22;;;1.51;100.00
39301;BME280;25019;42.626;23.380;2023-12-22T02:57:30;92739.22;;;0.99;100.00
39301;BME280;25019;42.626;23.380;2023-12-22T02:59:56;92658.59;;;0.43;100.00
39301;BME280;25019;42.626;23.380;2023-12-22T03:02:22;92712.09;;;0.76;100.00
39301;BME280;25019;42.626;23.380;2023-12-22T03:04:48;92746.94;;;1.17;100.00
39301;BME280;25019;42.626;23.380;2023-12-22T03:07:14;92672.66;;;0.78;100.00
39301;BME280;25019;42.626;23.380;2023-12-22T03:09:41;92723.34;;;0.88;100.00
39301;BME280;25019;42.626;23.380;2023-12-22T03:12:07;92797.03;;;1.38;100.00
39301;BME280;25019;42.626;23.380;2023-12-22T03:14:33;92697.22;;;0.65;100.00
39301;BME280;25019;42.626;23.380;2023-12-22T03:17:00;92717.00;;;0.61;100.00
39301;BME280;25019;42.626;23.380;2023-12-22T03:19:26;92707.13;;;0.39;100.00
39301;BME280;25019;42.626;23.380;2023-12-22T03:21:52;92765.69;;;0.31;100.00
39301;BME280;25019;42.626;23.380;2023-12-22T03:24:18;92802.78;;;0.21;100.00
39301;BME280;25019;42.626;23.380;2023-12-22T03:26:48;92760.25;;;-0.10;100.00
39301;BME280;25019;42.626;23.380;2023-12-22T03:29:14;92616.25;;;-1.34;100.00
39301;BME280;25019;42.626;23.380;2023-12-22T03:31:40;92768.16;;;-0.28;100.00
39301;BME280;25019;42.626;23.380;2023-12-22T03:34:06;92758.06;;;-0.25;100.00
39301;BME280;25019;42.626;23.380;2023-12-22T03:36:32;92717.81;;;-0.48;100.00
39301;BME280;25019;42.626;23.380;2023-12-22T03:38:58;92756.94;;;-0.29;100.00
39301;BME280;25019;42.626;23.380;2023-12-22T03:41:24;92553.28;;;-1.61;100.00
39301;BME280;25019;42.626;23.380;2023-12-22T03:43:50;92716.28;;;-0.67;100.00
39301;BME280;25019;42.626;23.380;2023-12-22T03:46:15;92753.75;;;-0.31;100.00
39301;BME280;25019;42.626;23.380;2023-12-22T03:48:41;92731.00;;;-0.42;100.00
39301;BME280;25019;42.626;23.380;2023-12-22T03:51:07;92794.19;;;-0.10;100.00
39301;BME280;25019;42.626;23.380;2023-12-22T03:53:33;92693.88;;;-0.56;100.00
39301;BME280;25019;42.626;23.380;2023-12-22T03:55:59;92761.34;;;0.13;100.00
39301;BME280;25019;42.626;23.380;2023-12-22T03:58:24;92772.25;;;0.10;100.00
39301;BME280;25019;42.626;23.380;2023-12-22T04:00:51;92645.34;;;-0.57;100.00
39301;BME280;25019;42.626;23.380;2023-12-22T04:03:17;92662.28;;;-0.48;100.00
39301;BME280;25019;42.626;23.380;2023-12-22T04:05:43;92715.84;;;0.09;100.00
39301;BME280;25019;42.626;23.380;2023-12-22T04:08:09;92810.94;;;0.79;100.00
39301;BME280;25019;42.626;23.380;2023-12-22T04:10:34;92717.06;;;0.18;100.00
39301;BME280;25019;42.626;23.380;2023-12-22T04:13:00;92779.47;;;0.74;100.00
39301;BME280;25019;42.626;23.380;2023-12-22T04:15:26;92731.84;;;0.48;100.00
39301;BME280;25019;42.626;23.380;2023-12-22T04:17:51;92727.44;;;0.61;100.00
39301;BME280;25019;42.626;23.380;2023-12-22T04:20:17;92728.69;;;0.58;100.00
39301;BME280;25019;42.626;23.380;2023-12-22T04:22:43;92746.75;;;0.83;100.00
39301;BME280;25019;42.626;23.380;2023-12-22T04:25:08;92644.53;;;0.20;100.00
39301;BME280;25019;42.626;23.380;2023-12-22T04:27:34;92717.09;;;0.78;100.00
39301;BME280;25019;42.626;23.380;2023-12-22T04:30:00;92741.50;;;1.07;100.00
39301;BME280;25019;42.626;23.380;2023-12-22T04:32:26;92784.22;;;1.25;100.00
39301;BME280;25019;42.626;23.380;2023-12-22T04:34:52;92693.47;;;0.72;100.00
39301;BME280;25019;42.626;23.380;2023-12-22T04:37:18;92656.91;;;0.61;100.00
39301;BME280;25019;42.626;23.380;2023-12-22T04:39:43;92758.41;;;1.16;100.00
39301;BME280;25019;42.626;23.380;2023-12-22T04:42:09;92797.00;;;1.50;100.00
39301;BME280;25019;42.626;23.380;2023-12-22T04:44:35;92748.56;;;1.07;100.00
39301;BME280;25019;42.626;23.380;2023-12-22T04:47:01;92789.41;;;1.48;100.00
39301;BME280;25019;42.626;23.380;2023-12-22T04:49:26;92795.88;;;1.46;100.00
39301;BME280;25019;42.626;23.380;2023-12-22T04:51:52;92664.50;;;0.62;100.00
39301;BME280;25019;42.626;23.380;2023-12-22T04:54:19;92681.09;;;0.68;100.00
39301;BME280;25019;42.626;23.380;2023-12-22T04:56:45;92780.66;;;1.31;100.00
39301;BME280;25019;42.626;23.380;2023-12-22T04:59:10;92774.88;;;1.17;100.00
39301;BME280;25019;42.626;23.380;2023-12-22T05:01:36;92793.41;;;1.27;100.00
39301;BME280;25019;42.626;23.380;2023-12-22T05:04:02;92708.09;;;0.85;100.00
39301;BME280;25019;42.626;23.380;2023-12-22T05:06:28;92763.63;;;1.28;100.00
39301;BME280;25019;42.626;23.380;2023-12-22T05:08:56;92603.78;;;0.19;100.00
39301;BME280;25019;42.626;23.380;2023-12-22T05:11:22;92683.34;;;0.64;100.00
39301;BME280;25019;42.626;23.380;2023-12-22T05:13:48;92758.84;;;1.25;100.00
39301;BME280;25019;42.626;23.380;2023-12-22T05:16:14;92650.69;;;0.38;100.00
39301;BME280;25019;42.626;23.380;2023-12-22T05:18:40;92637.38;;;0.39;100.00
39301;BME280;25019;42.626;23.380;2023-12-22T05:21:05;92627.63;;;0.23;100.00
39301;BME280;25019;42.626;23.380;2023-12-22T05:23:31;92663.81;;;0.43;100.00
39301;BME280;25019;42.626;23.380;2023-12-22T05:26:17;92647.13;;;0.44;100.00
39301;BME280;25019;42.626;23.380;2023-12-22T05:28:43;92757.06;;;1.02;100.00
39301;BME280;25019;42.626;23.380;2023-12-22T05:31:09;92781.50;;;1.19;100.00
39301;BME280;25019;42.626;23.380;2023-12-22T05:33:35;92760.59;;;1.08;100.00
39301;BME280;25019;42.626;23.380;2023-12-22T05:36:00;92616.19;;;0.24;100.00
39301;BME280;25019;42.626;23.380;2023-12-22T05:38:26;92721.94;;;0.98;100.00
39301;BME280;25019;42.626;23.380;2023-12-22T05:40:52;92643.41;;;0.40;100.00
39301;BME280;25019;42.626;23.380;2023-12-22T05:43:18;92782.94;;;1.39;100.00
39301;BME280;25019;42.626;23.380;2023-12-22T05:45:43;92760.91;;;1.23;100.00
39301;BME280;25019;42.626;23.380;2023-12-22T05:48:09;92718.78;;;0.96;100.00
39301;BME280;25019;42.626;23.380;2023-12-22T05:50:35;92763.28;;;1.37;100.00
39301;BME280;25019;42.626;23.380;2023-12-22T05:53:01;92631.00;;;0.47;100.00
39301;BME280;25019;42.626;23.380;2023-12-22T05:55:27;92681.97;;;0.85;100.00
39301;BME280;25019;42.626;23.380;2023-12-22T05:57:52;92699.34;;;0.92;100.00
39301;BME280;25019;42.626;23.380;2023-12-22T06:00:19;92765.41;;;1.40;100.00
39301;BME280;25019;42.626;23.380;2023-12-22T06:02:45;92772.72;;;1.38;100.00
39301;BME280;25019;42.626;23.380;2023-12-22T06:05:11;92711.28;;;0.99;100.00
39301;BME280;25019;42.626;23.380;2023-12-22T06:07:37;92777.59;;;1.34;100.00
39301;BME280;25019;42.626;23.380;2023-12-22T06:10:02;92723.22;;;0.95;100.00
39301;BME280;25019;42.626;23.380;2023-12-22T06:12:28;92785.44;;;1.34;100.00
39301;BME280;25019;42.626;23.380;2023-12-22T06:14:54;92694.16;;;0.80;100.00
39301;BME280;25019;42.626;23.380;2023-12-22T06:17:19;92790.34;;;1.30;100.00
39301;BME280;25019;42.626;23.380;2023-12-22T06:19:45;92776.03;;;1.21;100.00
39301;BME280;25019;42.626;23.380;2023-12-22T06:22:11;92781.50;;;1.19;100.00
39301;BME280;25019;42.626;23.380;2023-12-22T06:24:36;92784.78;;;1.39;100.00
39301;BME280;25019;42.626;23.380;2023-12-22T06:27:02;92795.53;;;1.54;100.00
39301;BME280;25019;42.626;23.380;2023-12-22T06:29:28;92756.63;;;1.46;100.00
39301;BME280;25019;42.626;23.380;2023-12-22T06:31:56;92782.44;;;1.54;100.00
39301;BME280;25019;42.626;23.380;2023-12-22T06:34:22;92803.66;;;1.70;100.00
39301;BME280;25019;42.626;23.380;2023-12-22T06:36:47;92804.22;;;1.72;100.00
39301;BME280;25019;42.626;23.380;2023-12-22T06:39:14;92761.72;;;1.64;100.00
39301;BME280;25019;42.626;23.380;2023-12-22T06:41:40;92764.91;;;1.67;100.00
39301;BME280;25019;42.626;23.380;2023-12-22T06:44:06;92720.94;;;1.40;100.00
39301;BME280;25019;42.626;23.380;2023-12-22T06:46:32;92796.28;;;1.95;100.00
39301;BME280;25019;42.626;23.380;2023-12-22T06:48:58;92784.88;;;2.02;100.00
39301;BME280;25019;42.626;23.380;2023-12-22T06:51:29;92675.41;;;1.24;100.00
39301;BME280;25019;42.626;23.380;2023-12-22T06:54:02;92804.75;;;2.15;100.00
39301;BME280;25019;42.626;23.380;2023-12-22T06:56:30;92764.69;;;1.85;100.00
39301;BME280;25019;42.626;23.380;2023-12-22T06:58:57;92798.38;;;2.10;100.00
39301;BME280;25019;42.626;23.380;2023-12-22T07:01:27;92774.50;;;2.07;100.00
39301;BME280;25019;42.626;23.380;2023-12-22T07:03:52;92795.25;;;2.08;100.00
39301;BME280;25019;42.626;23.380;2023-12-22T07:06:19;92803.66;;;2.28;100.00
39301;BME280;25019;42.626;23.380;2023-12-22T07:08:46;92811.78;;;2.26;100.00
39301;BME280;25019;42.626;23.380;2023-12-22T07:11:22;92801.94;;;2.33;100.00
39301;BME280;25019;42.626;23.380;2023-12-22T07:13:48;92803.59;;;2.39;100.00
39301;BME280;25019;42.626;23.380;2023-12-22T07:16:15;92704.31;;;1.75;100.00
39301;BME280;25019;42.626;23.380;2023-12-22T07:18:41;92810.53;;;2.46;100.00
39301;BME280;25019;42.626;23.380;2023-12-22T07:21:07;92791.88;;;2.42;100.00
39301;BME280;25019;42.626;23.380;2023-12-22T07:23:33;92810.22;;;2.42;100.00
39301;BME280;25019;42.626;23.380;2023-12-22T07:25:59;92814.25;;;2.50;100.00
39301;BME280;25019;42.626;23.380;2023-12-22T07:28:24;92825.41;;;2.57;100.00
39301;BME280;25019;42.626;23.380;2023-12-22T07:30:50;92781.03;;;2.38;100.00
39301;BME280;25019;42.626;23.380;2023-12-22T07:33:15;92815.22;;;2.61;100.00
39301;BME280;25019;42.626;23.380;2023-12-22T07:35:41;92784.38;;;2.34;100.00
39301;BME280;25019;42.626;23.380;2023-12-22T07:38:07;92768.81;;;2.27;100.00
39301;BME280;25019;42.626;23.380;2023-12-22T07:40:34;92816.03;;;2.61;100.00
39301;BME280;25019;42.626;23.380;2023-12-22T07:42:59;92794.09;;;2.50;100.00
39301;BME280;25019;42.626;23.380;2023-12-22T07:45:25;92763.34;;;2.29;100.00
39301;BME280;25019;42.626;23.380;2023-12-22T07:47:53;92819.69;;;2.77;100.00
39301;BME280;25019;42.626;23.380;2023-12-22T07:50:19;92801.88;;;2.62;100.00
39301;BME280;25019;42.626;23.380;2023-12-22T07:52:46;92792.66;;;2.60;100.00
39301;BME280;25019;42.626;23.380;2023-12-22T07:55:12;92748.00;;;2.37;100.00
39301;BME280;25019;42.626;23.380;2023-12-22T07:57:38;92846.38;;;2.91;100.00
39301;BME280;25019;42.626;23.380;2023-12-22T08:00:04;92792.03;;;2.69;100.00
39301;BME280;25019;42.626;23.380;2023-12-22T08:02:37;92857.97;;;3.12;100.00
39301;BME280;25019;42.626;23.380;2023-12-22T08:05:03;92758.19;;;2.51;100.00
39301;BME280;25019;42.626;23.380;2023-12-22T08:07:29;92749.88;;;2.54;100.00
39301;BME280;25019;42.626;23.380;2023-12-22T08:09:56;92773.44;;;2.71;100.00
39301;BME280;25019;42.626;23.380;2023-12-22T08:12:22;92842.94;;;3.25;100.00
39301;BME280;25019;42.626;23.380;2023-12-22T08:14:48;92817.59;;;2.96;100.00
39301;BME280;25019;42.626;23.380;2023-12-22T08:17:14;92789.72;;;2.73;100.00
39301;BME280;25019;42.626;23.380;2023-12-22T08:19:39;92848.38;;;3.18;100.00
39301;BME280;25019;42.626;23.380;2023-12-22T08:22:09;92867.19;;;3.32;100.00
39301;BME280;25019;42.626;23.380;2023-12-22T08:24:36;92711.81;;;2.17;100.00
39301;BME280;25019;42.626;23.380;2023-12-22T08:27:01;92784.78;;;2.77;100.00
39301;BME280;25019;42.626;23.380;2023-12-22T08:29:27;92743.25;;;2.51;100.00
39301;BME280;25019;42.626;23.380;2023-12-22T08:31:53;92735.63;;;2.33;100.00
39301;BME280;25019;42.626;23.380;2023-12-22T08:34:19;92893.25;;;3.39;100.00
39301;BME280;25019;42.626;23.380;2023-12-22T08:36:45;92830.00;;;3.01;100.00
39301;BME280;25019;42.626;23.380;2023-12-22T08:39:12;92667.84;;;1.85;100.00
39301;BME280;25019;42.626;23.380;2023-12-22T08:41:38;92686.47;;;1.89;100.00
39301;BME280;25019;42.626;23.380;2023-12-22T08:44:05;92782.81;;;2.50;100.00
39301;BME280;25019;42.626;23.380;2023-12-22T08:46:31;92880.47;;;3.08;100.00
39301;BME280;25019;42.626;23.380;2023-12-22T08:48:57;92810.44;;;2.58;100.00
39301;BME280;25019;42.626;23.380;2023-12-22T08:51:27;92863.38;;;2.89;100.00
39301;BME280;25019;42.626;23.380;2023-12-22T08:53:54;92805.63;;;2.49;100.00
39301;BME280;25019;42.626;23.380;2023-12-22T08:56:23;92766.50;;;2.31;100.00
39301;BME280;25019;42.626;23.380;2023-12-22T08:58:50;92712.03;;;1.99;100.00
39301;BME280;25019;42.626;23.380;2023-12-22T09:01:18;92845.88;;;2.94;100.00
39301;BME280;25019;42.626;23.380;2023-12-22T09:03:44;92795.06;;;2.61;100.00
39301;BME280;25019;42.626;23.380;2023-12-22T09:06:17;92892.53;;;3.26;100.00
39301;BME280;25019;42.626;23.380;2023-12-22T09:08:43;92861.63;;;3.11;100.00
39301;BME280;25019;42.626;23.380;2023-12-22T09:11:15;92802.66;;;2.63;100.00
39301;BME280;25019;42.626;23.380;2023-12-22T09:13:42;92850.56;;;3.09;100.00
39301;BME280;25019;42.626;23.380;2023-12-22T09:16:08;92876.03;;;3.09;100.00
39301;BME280;25019;42.626;23.380;2023-12-22T09:18:34;92756.94;;;2.36;100.00
39301;BME280;25019;42.626;23.380;2023-12-22T09:21:00;92901.34;;;3.37;100.00
39301;BME280;25019;42.626;23.380;2023-12-22T09:23:26;92803.63;;;2.74;100.00
39301;BME280;25019;42.626;23.380;2023-12-22T09:25:52;92872.84;;;3.24;100.00
39301;BME280;25019;42.626;23.380;2023-12-22T09:28:18;92810.72;;;2.73;100.00
39301;BME280;25019;42.626;23.380;2023-12-22T09:30:44;92711.44;;;2.08;100.00
39301;BME280;25019;42.626;23.380;2023-12-22T09:33:10;92821.03;;;2.97;100.00
39301;BME280;25019;42.626;23.380;2023-12-22T09:35:36;92919.56;;;3.61;100.00
39301;BME280;25019;42.626;23.380;2023-12-22T09:38:03;92912.22;;;3.63;100.00
39301;BME280;25019;42.626;23.380;2023-12-22T09:40:29;92768.50;;;2.58;100.00
39301;BME280;25019;42.626;23.380;2023-12-22T09:42:57;92855.19;;;3.19;100.00
39301;BME280;25019;42.626;23.380;2023-12-22T09:45:23;92800.59;;;2.82;100.00
39301;BME280;25019;42.626;23.380;2023-12-22T09:47:50;92752.38;;;2.83;100.00
39301;BME280;25019;42.626;23.380;2023-12-22T09:50:17;92842.47;;;3.50;100.00
39301;BME280;25019;42.626;23.380;2023-12-22T09:52:43;92709.03;;;2.75;100.00
39301;BME280;25019;42.626;23.380;2023-12-22T09:55:12;92891.47;;;4.01;100.00
39301;BME280;25019;42.626;23.380;2023-12-22T09:57:38;92778.06;;;3.42;100.00
39301;BME280;25019;42.626;23.380;2023-12-22T10:00:08;92800.56;;;3.33;100.00
39301;BME280;25019;42.626;23.380;2023-12-22T10:02:36;92773.63;;;3.43;100.00
39301;BME280;25019;42.626;23.380;2023-12-22T10:05:02;92885.94;;;4.25;100.00
39301;BME280;25019;42.626;23.380;2023-12-22T10:07:28;92725.72;;;3.30;100.00
39301;BME280;25019;42.626;23.380;2023-12-22T10:09:55;92803.53;;;3.86;100.00
39301;BME280;25019;42.626;23.380;2023-12-22T10:12:23;92747.13;;;3.67;100.00
39301;BME280;25019;42.626;23.380;2023-12-22T10:14:49;92730.59;;;3.44;100.00
39301;BME280;25019;42.626;23.380;2023-12-22T10:17:17;92731.38;;;3.44;100.00
39301;BME280;25019;42.626;23.380;2023-12-22T10:19:43;92675.28;;;2.62;100.00
39301;BME280;25019;42.626;23.380;2023-12-22T10:22:09;92782.66;;;3.52;100.00
39301;BME280;25019;42.626;23.380;2023-12-22T10:24:41;92835.00;;;4.03;100.00
39301;BME280;25019;42.626;23.380;2023-12-22T10:27:14;92732.56;;;3.54;100.00
39301;BME280;25019;42.626;23.380;2023-12-22T10:29:40;92756.25;;;3.86;100.00
39301;BME280;25019;42.626;23.380;2023-12-22T10:32:07;92811.31;;;4.26;100.00
39301;BME280;25019;42.626;23.380;2023-12-22T10:34:34;92704.38;;;3.44;100.00
39301;BME280;25019;42.626;23.380;2023-12-22T10:37:01;92831.53;;;3.98;100.00
39301;BME280;25019;42.626;23.380;2023-12-22T10:39:28;92768.06;;;3.62;100.00
39301;BME280;25019;42.626;23.380;2023-12-22T10:41:56;92760.91;;;3.79;100.00
39301;BME280;25019;42.626;23.380;2023-12-22T10:44:29;92728.91;;;3.82;100.00
39301;BME280;25019;42.626;23.380;2023-12-22T10:46:55;92620.31;;;3.39;100.00
39301;BME280;25019;42.626;23.380;2023-12-22T10:49:22;92736.00;;;4.09;100.00
39301;BME280;25019;42.626;23.380;2023-12-22T10:51:49;92754.59;;;4.30;100.00
39301;BME280;25019;42.626;23.380;2023-12-22T10:54:17;92641.16;;;3.78;100.00
39301;BME280;25019;42.626;23.380;2023-12-22T10:56:43;92639.19;;;3.63;100.00
39301;BME280;25019;42.626;23.380;2023-12-22T10:59:09;92664.34;;;3.86;100.00
39301;BME280;25019;42.626;23.380;2023-12-22T11:01:38;92781.34;;;4.92;100.00
39301;BME280;25019;42.626;23.380;2023-12-22T11:04:08;92783.44;;;4.85;100.00
39301;BME280;25019;42.626;23.380;2023-12-22T11:06:36;92730.50;;;4.81;100.00
39301;BME280;25019;42.626;23.380;2023-12-22T11:09:09;92691.41;;;4.52;100.00
39301;BME280;25019;42.626;23.380;2023-12-22T11:11:37;92715.31;;;4.88;100.00
39301;BME280;25019;42.626;23.380;2023-12-22T11:14:07;92665.22;;;4.68;100.00
39301;BME280;25019;42.626;23.380;2023-12-22T11:16:34;92755.66;;;5.52;100.00
39301;BME280;25019;42.626;23.380;2023-12-22T11:19:02;92717.78;;;5.05;100.00
39301;BME280;25019;42.626;23.380;2023-12-22T11:21:29;92670.88;;;4.92;100.00
39301;BME280;25019;42.626;23.380;2023-12-22T11:23:55;92685.44;;;5.10;100.00
39301;BME280;25019;42.626;23.380;2023-12-22T11:26:23;92633.00;;;4.88;100.00
39301;BME280;25019;42.626;23.380;2023-12-22T11:28:51;92551.22;;;3.98;100.00
39301;BME280;25019;42.626;23.380;2023-12-22T11:31:19;92638.19;;;4.77;100.00
39301;BME280;25019;42.626;23.380;2023-12-22T11:33:48;92719.22;;;5.34;100.00
39301;BME280;25019;42.626;23.380;2023-12-22T11:36:15;92545.31;;;4.18;100.00
39301;BME280;25019;42.626;23.380;2023-12-22T11:38:43;92716.59;;;5.29;100.00
39301;BME280;25019;42.626;23.380;2023-12-22T11:41:16;92715.88;;;5.54;100.00
39301;BME280;25019;42.626;23.380;2023-12-22T11:43:43;92567.00;;;4.41;100.00
39301;BME280;25019;42.626;23.380;2023-12-22T11:46:10;92768.81;;;5.58;100.00
39301;BME280;25019;42.626;23.380;2023-12-22T11:48:37;92622.31;;;4.57;100.00
39301;BME280;25019;42.626;23.380;2023-12-22T11:51:13;92750.88;;;5.44;100.00
39301;BME280;25019;42.626;23.380;2023-12-22T11:53:42;92783.81;;;5.52;100.00
39301;BME280;25019;42.626;23.380;2023-12-22T11:56:09;92728.25;;;5.48;100.00
39301;BME280;25019;42.626;23.380;2023-12-22T11:58:45;92770.38;;;5.48;100.00
39301;BME280;25019;42.626;23.380;2023-12-22T12:01:27;92617.28;;;4.55;100.00
39301;BME280;25019;42.626;23.380;2023-12-22T12:03:58;92750.63;;;5.51;100.00
39301;BME280;25019;42.626;23.380;2023-12-22T12:08:55;92597.94;;;4.77;100.00
39301;BME280;25019;42.626;23.380;2023-12-22T12:11:22;92741.25;;;5.76;100.00
39301;BME280;25019;42.626;23.380;2023-12-22T12:13:49;92667.94;;;5.42;100.00
39301;BME280;25019;42.626;23.380;2023-12-22T12:16:20;92670.63;;;5.62;100.00
39301;BME280;25019;42.626;23.380;2023-12-22T12:18:50;92627.34;;;5.32;100.00
39301;BME280;25019;42.626;23.380;2023-12-22T12:21:18;92726.03;;;5.98;100.00
39301;BME280;25019;42.626;23.380;2023-12-22T12:23:43;92692.00;;;5.76;100.00
39301;BME280;25019;42.626;23.380;2023-12-22T12:26:11;92677.50;;;5.84;100.00
39301;BME280;25019;42.626;23.380;2023-12-22T12:28:37;92700.00;;;6.12;98.93
39301;BME280;25019;42.626;23.380;2023-12-22T12:31:08;92703.94;;;6.10;97.08
39301;BME280;25019;42.626;23.380;2023-12-22T12:33:37;92611.06;;;5.46;94.94
39301;BME280;25019;42.626;23.380;2023-12-22T12:36:03;92708.16;;;6.16;91.61
39301;BME280;25019;42.626;23.380;2023-12-22T12:39:09;92734.00;;;6.35;90.34
39301;BME280;25019;42.626;23.380;2023-12-22T12:41:41;92701.56;;;6.19;90.24
39301;BME280;25019;42.626;23.380;2023-12-22T12:44:09;92651.72;;;5.91;90.09
39301;BME280;25019;42.626;23.380;2023-12-22T12:46:38;92723.22;;;6.36;89.05
39301;BME280;25019;42.626;23.380;2023-12-22T12:49:08;92692.09;;;6.23;89.42